Nashville, TN (JWN)


Given the close proximity to downtown Nashville, Tennessee, John Tune (JWN) is a great place for the general aviation enthusiast or for someone learning how to fly. Wings of Eagles Aviation’s office is located in Hangar 1, and is accessible from the road or the ramp. The FBO is open 24 hours a day 7 days a week so there will always be someone available for help or fuel.

Address:
210 Tune Airport Dr.
Nashville, TN 37209

Phone: (615) 979-9222

Business Hours:
Monday-Sunday 7a-10p

Wings JWN

NOAA Weather

Nashville, TN

Last Updated on Dec 17 2017, 7:53 pm CST

Current Conditions: Fog/Mist

NOAA Icon

Temp: 47°F

Wind: South at 3mph

Humidity: 97%

Dewpoint: 46.0°F

Your 5-Day Forecast at a Glance

Available data for KBNA from the past 2 hours
NASHVILLE, TN
Metar
KBNA 180153Z 18003KT 1SM R02L/P6000FT BR OVC005 08/08 A3016 RMK AO2 SFC VIS 1 3/4 SLP215 T00830078 $

01:53 UTC

Wind: 180° 3kt

Visibility: 1 SM

Sky: OVC 500 ft

Temp: 8 deg C / 46.4 deg F

Dewpoint: 8 deg C / 46.4 deg F

Pressure: 30.16 inHg

TAF
KBNA 172334Z 1800/1824 VRB03KT 3SM BR OVC007 FM180200 VRB02KT 2SM -DZ BR OVC005
Pireps (4)
LOZ UA /OV LVT338015/TM 0239/FL400/TP B737/TB LGT-MOD CHOP/RM CONT LGT OCNL MOD CHOP/ WITH WAVE ACTION
KBNA UA /OV BNA090005/TM 0149/FL004/TP B737/SK OVC004-TOP040
ARP UAL2072 3636N 08510W 0139 F350 258/111 TB LGT SK ON TOP IC NONE RM B739 OV SWAPP
ARP UAL2072 3636N 08510W 0139 F330 263/109 TB SMTH SK ON TOP IC NONE RM B739 OV SWAPP